sensor_id;sensor_type;location;lat;lon;timestamp;pressure;altitude;pressure_sealevel;temperature;humidity
59435;BME280;45241;49.768;8.636;2022-10-16T00:00:26;99931.41;;;19.27;100.00
59435;BME280;45241;49.768;8.636;2022-10-16T00:02:51;99942.56;;;19.04;100.00
59435;BME280;45241;49.768;8.636;2022-10-16T00:05:16;99938.50;;;19.06;100.00
59435;BME280;45241;49.768;8.636;2022-10-16T00:07:42;99934.38;;;18.99;100.00
59435;BME280;45241;49.768;8.636;2022-10-16T00:10:07;99930.56;;;19.00;100.00
59435;BME280;45241;49.768;8.636;2022-10-16T00:12:32;99928.41;;;19.02;100.00
59435;BME280;45241;49.768;8.636;2022-10-16T00:14:57;99932.41;;;18.94;100.00
59435;BME280;45241;49.768;8.636;2022-10-16T00:17:23;99933.75;;;18.75;100.00
59435;BME280;45241;49.768;8.636;2022-10-16T00:19:48;99942.38;;;18.89;100.00
59435;BME280;45241;49.768;8.636;2022-10-16T00:22:13;99947.75;;;18.84;100.00
59435;BME280;45241;49.768;8.636;2022-10-16T00:24:38;99947.69;;;18.78;100.00
59435;BME280;45241;49.768;8.636;2022-10-16T00:27:03;99941.66;;;18.76;100.00
59435;BME280;45241;49.768;8.636;2022-10-16T00:29:28;99945.88;;;18.84;100.00
59435;BME280;45241;49.768;8.636;2022-10-16T00:31:54;99938.53;;;18.85;100.00
59435;BME280;45241;49.768;8.636;2022-10-16T00:34:19;99943.03;;;18.57;100.00
59435;BME280;45241;49.768;8.636;2022-10-16T00:36:44;99948.72;;;18.77;100.00
59435;BME280;45241;49.768;8.636;2022-10-16T00:39:09;99954.19;;;18.99;100.00
59435;BME280;45241;49.768;8.636;2022-10-16T00:41:34;99942.81;;;18.81;100.00
59435;BME280;45241;49.768;8.636;2022-10-16T00:44:01;99947.56;;;18.90;100.00
59435;BME280;45241;49.768;8.636;2022-10-16T00:46:37;99938.69;;;18.78;100.00
59435;BME280;45241;49.768;8.636;2022-10-16T00:49:04;99944.28;;;18.88;100.00
59435;BME280;45241;49.768;8.636;2022-10-16T00:51:40;99939.28;;;18.80;100.00
59435;BME280;45241;49.768;8.636;2022-10-16T00:54:15;99941.31;;;19.12;100.00
59435;BME280;45241;49.768;8.636;2022-10-16T00:56:42;99948.03;;;18.82;100.00
59435;BME280;45241;49.768;8.636;2022-10-16T00:59:14;99951.28;;;19.06;100.00
59435;BME280;45241;49.768;8.636;2022-10-16T01:01:40;99944.44;;;19.25;100.00
59435;BME280;45241;49.768;8.636;2022-10-16T01:04:05;99951.25;;;19.28;100.00
59435;BME280;45241;49.768;8.636;2022-10-16T01:06:40;99955.84;;;19.22;100.00
59435;BME280;45241;49.768;8.636;2022-10-16T01:12:19;99954.94;;;19.17;100.00
59435;BME280;45241;49.768;8.636;2022-10-16T01:14:46;99953.59;;;19.19;100.00
59435;BME280;45241;49.768;8.636;2022-10-16T01:17:15;99960.09;;;19.40;100.00
59435;BME280;45241;49.768;8.636;2022-10-16T01:19:50;99962.41;;;19.04;100.00
59435;BME280;45241;49.768;8.636;2022-10-16T01:22:19;99968.25;;;19.18;100.00
59435;BME280;45241;49.768;8.636;2022-10-16T01:24:47;99962.22;;;19.33;100.00
59435;BME280;45241;49.768;8.636;2022-10-16T01:27:14;99956.03;;;19.43;100.00
59435;BME280;45241;49.768;8.636;2022-10-16T01:32:10;99953.88;;;18.96;100.00
59435;BME280;45241;49.768;8.636;2022-10-16T01:34:53;99944.50;;;19.30;100.00
59435;BME280;45241;49.768;8.636;2022-10-16T01:37:22;99945.53;;;19.24;100.00
59435;BME280;45241;49.768;8.636;2022-10-16T01:39:50;99938.59;;;19.38;100.00
59435;BME280;45241;49.768;8.636;2022-10-16T01:42:21;99946.59;;;19.23;100.00
59435;BME280;45241;49.768;8.636;2022-10-16T01:44:48;99945.13;;;19.37;100.00
59435;BME280;45241;49.768;8.636;2022-10-16T01:47:15;99946.72;;;19.33;100.00
59435;BME280;45241;49.768;8.636;2022-10-16T01:49:41;99962.09;;;19.23;100.00
59435;BME280;45241;49.768;8.636;2022-10-16T01:52:09;99969.03;;;19.14;100.00
59435;BME280;45241;49.768;8.636;2022-10-16T01:54:36;99973.78;;;19.23;100.00
59435;BME280;45241;49.768;8.636;2022-10-16T01:57:03;99977.81;;;18.99;100.00
59435;BME280;45241;49.768;8.636;2022-10-16T01:59:31;99979.94;;;19.19;100.00
59435;BME280;45241;49.768;8.636;2022-10-16T02:02:00;99967.16;;;19.41;100.00
59435;BME280;45241;49.768;8.636;2022-10-16T02:04:48;99967.69;;;19.38;100.00
59435;BME280;45241;49.768;8.636;2022-10-16T02:07:14;99964.69;;;19.13;100.00
59435;BME280;45241;49.768;8.636;2022-10-16T02:09:40;99976.03;;;19.31;100.00
59435;BME280;45241;49.768;8.636;2022-10-16T02:12:10;99971.34;;;19.49;100.00
59435;BME280;45241;49.768;8.636;2022-10-16T02:14:38;99969.91;;;19.19;100.00
59435;BME280;45241;49.768;8.636;2022-10-16T02:17:14;99969.75;;;19.31;100.00
59435;BME280;45241;49.768;8.636;2022-10-16T02:19:40;99958.41;;;19.61;100.00
59435;BME280;45241;49.768;8.636;2022-10-16T02:22:06;99954.47;;;19.47;100.00
59435;BME280;45241;49.768;8.636;2022-10-16T02:24:33;99960.88;;;19.35;100.00
59435;BME280;45241;49.768;8.636;2022-10-16T02:27:13;99952.97;;;19.61;100.00
59435;BME280;45241;49.768;8.636;2022-10-16T02:29:46;99960.91;;;19.67;100.00
59435;BME280;45241;49.768;8.636;2022-10-16T02:32:15;99963.47;;;19.52;100.00
59435;BME280;45241;49.768;8.636;2022-10-16T02:34:42;99969.84;;;19.14;100.00
59435;BME280;45241;49.768;8.636;2022-10-16T02:37:08;99961.88;;;19.56;100.00
59435;BME280;45241;49.768;8.636;2022-10-16T02:39:35;99972.69;;;19.24;100.00
59435;BME280;45241;49.768;8.636;2022-10-16T02:42:00;99972.47;;;19.53;100.00
59435;BME280;45241;49.768;8.636;2022-10-16T02:44:26;99971.50;;;19.64;100.00
59435;BME280;45241;49.768;8.636;2022-10-16T02:46:51;99973.13;;;19.65;100.00
59435;BME280;45241;49.768;8.636;2022-10-16T02:49:16;99976.03;;;19.58;100.00
59435;BME280;45241;49.768;8.636;2022-10-16T02:51:42;99974.75;;;19.66;100.00
59435;BME280;45241;49.768;8.636;2022-10-16T02:54:07;99973.94;;;19.65;100.00
59435;BME280;45241;49.768;8.636;2022-10-16T02:56:33;99971.84;;;19.73;100.00
59435;BME280;45241;49.768;8.636;2022-10-16T02:58:58;99978.19;;;19.56;100.00
59435;BME280;45241;49.768;8.636;2022-10-16T03:01:23;99979.38;;;19.17;100.00
59435;BME280;45241;49.768;8.636;2022-10-16T03:03:49;99979.38;;;19.38;100.00
59435;BME280;45241;49.768;8.636;2022-10-16T03:06:14;99991.19;;;19.05;100.00
59435;BME280;45241;49.768;8.636;2022-10-16T03:08:39;99992.59;;;19.30;100.00
59435;BME280;45241;49.768;8.636;2022-10-16T03:11:04;99986.19;;;19.41;100.00
59435;BME280;45241;49.768;8.636;2022-10-16T03:13:29;99981.25;;;19.60;100.00
59435;BME280;45241;49.768;8.636;2022-10-16T03:15:55;99982.88;;;19.12;100.00
59435;BME280;45241;49.768;8.636;2022-10-16T03:18:20;99975.13;;;19.48;100.00
59435;BME280;45241;49.768;8.636;2022-10-16T03:20:45;99995.56;;;19.28;100.00
59435;BME280;45241;49.768;8.636;2022-10-16T03:23:10;99985.66;;;19.17;100.00
59435;BME280;45241;49.768;8.636;2022-10-16T03:25:36;99982.94;;;19.17;100.00
59435;BME280;45241;49.768;8.636;2022-10-16T03:28:01;99979.91;;;19.35;100.00
59435;BME280;45241;49.768;8.636;2022-10-16T03:30:26;99991.84;;;19.13;100.00
59435;BME280;45241;49.768;8.636;2022-10-16T03:32:51;99983.00;;;19.22;100.00
59435;BME280;45241;49.768;8.636;2022-10-16T03:35:19;99985.91;;;19.16;100.00
59435;BME280;45241;49.768;8.636;2022-10-16T03:37:44;99994.88;;;19.38;100.00
59435;BME280;45241;49.768;8.636;2022-10-16T03:40:09;99979.94;;;19.41;100.00
59435;BME280;45241;49.768;8.636;2022-10-16T03:42:35;99986.75;;;19.43;100.00
59435;BME280;45241;49.768;8.636;2022-10-16T03:45:00;100002.19;;;19.59;100.00
59435;BME280;45241;49.768;8.636;2022-10-16T03:47:25;99997.88;;;19.42;100.00
59435;BME280;45241;49.768;8.636;2022-10-16T03:49:50;100005.56;;;19.23;100.00
59435;BME280;45241;49.768;8.636;2022-10-16T03:52:16;100005.19;;;19.36;100.00
59435;BME280;45241;49.768;8.636;2022-10-16T03:54:41;100006.78;;;19.10;100.00
59435;BME280;45241;49.768;8.636;2022-10-16T03:57:06;100013.06;;;19.37;100.00
59435;BME280;45241;49.768;8.636;2022-10-16T03:59:32;100010.41;;;19.43;100.00
59435;BME280;45241;49.768;8.636;2022-10-16T04:01:57;100006.31;;;19.67;100.00
59435;BME280;45241;49.768;8.636;2022-10-16T04:04:22;100013.78;;;19.77;100.00
59435;BME280;45241;49.768;8.636;2022-10-16T04:06:47;100017.59;;;19.54;100.00
59435;BME280;45241;49.768;8.636;2022-10-16T04:09:12;100012.19;;;19.59;100.00
59435;BME280;45241;49.768;8.636;2022-10-16T04:11:38;99995.78;;;19.22;100.00
59435;BME280;45241;49.768;8.636;2022-10-16T04:14:04;100012.81;;;19.17;100.00
59435;BME280;45241;49.768;8.636;2022-10-16T04:16:29;100006.03;;;19.42;100.00
59435;BME280;45241;49.768;8.636;2022-10-16T04:18:54;99995.78;;;19.22;100.00
59435;BME280;45241;49.768;8.636;2022-10-16T04:21:19;99991.22;;;19.54;100.00
59435;BME280;45241;49.768;8.636;2022-10-16T04:23:44;100002.41;;;19.58;100.00
59435;BME280;45241;49.768;8.636;2022-10-16T04:26:10;100011.56;;;19.25;100.00
59435;BME280;45241;49.768;8.636;2022-10-16T04:28:35;100016.84;;;18.93;100.00
59435;BME280;45241;49.768;8.636;2022-10-16T04:31:03;100022.63;;;18.96;100.00
59435;BME280;45241;49.768;8.636;2022-10-16T04:33:28;100020.72;;;19.41;100.00
59435;BME280;45241;49.768;8.636;2022-10-16T04:35:59;100014.06;;;19.53;100.00
59435;BME280;45241;49.768;8.636;2022-10-16T04:38:25;100015.00;;;19.42;100.00
59435;BME280;45241;49.768;8.636;2022-10-16T04:40:51;100021.28;;;19.43;100.00
59435;BME280;45241;49.768;8.636;2022-10-16T04:43:16;100032.03;;;19.32;100.00
59435;BME280;45241;49.768;8.636;2022-10-16T04:45:41;100024.00;;;19.43;100.00
59435;BME280;45241;49.768;8.636;2022-10-16T04:48:06;100029.13;;;19.39;100.00
59435;BME280;45241;49.768;8.636;2022-10-16T04:50:31;100018.44;;;19.32;100.00
59435;BME280;45241;49.768;8.636;2022-10-16T04:52:57;100023.00;;;19.49;100.00
59435;BME280;45241;49.768;8.636;2022-10-16T04:55:22;100017.56;;;19.27;100.00
59435;BME280;45241;49.768;8.636;2022-10-16T04:57:47;100008.72;;;19.36;100.00
59435;BME280;45241;49.768;8.636;2022-10-16T05:00:12;100012.38;;;19.47;100.00
59435;BME280;45241;49.768;8.636;2022-10-16T05:02:38;100019.84;;;19.13;100.00
59435;BME280;45241;49.768;8.636;2022-10-16T05:05:03;100025.19;;;19.30;100.00
59435;BME280;45241;49.768;8.636;2022-10-16T05:07:28;100025.19;;;19.52;100.00
59435;BME280;45241;49.768;8.636;2022-10-16T05:09:53;100014.63;;;19.55;100.00
59435;BME280;45241;49.768;8.636;2022-10-16T05:12:19;100011.19;;;19.65;100.00
59435;BME280;45241;49.768;8.636;2022-10-16T05:14:44;100015.44;;;19.56;100.00
59435;BME280;45241;49.768;8.636;2022-10-16T05:17:09;100011.56;;;19.25;100.00
59435;BME280;45241;49.768;8.636;2022-10-16T05:19:34;100009.88;;;19.46;100.00
59435;BME280;45241;49.768;8.636;2022-10-16T05:21:59;100006.13;;;19.47;100.00
59435;BME280;45241;49.768;8.636;2022-10-16T05:24:25;100005.09;;;19.53;100.00
59435;BME280;45241;49.768;8.636;2022-10-16T05:26:50;100012.41;;;19.52;100.00
59435;BME280;45241;49.768;8.636;2022-10-16T05:29:15;100015.31;;;18.80;100.00
59435;BME280;45241;49.768;8.636;2022-10-16T05:31:40;100014.84;;;19.05;100.00
59435;BME280;45241;49.768;8.636;2022-10-16T05:34:06;100018.81;;;19.41;100.00
59435;BME280;45241;49.768;8.636;2022-10-16T05:36:31;100017.94;;;18.75;100.00
59435;BME280;45241;49.768;8.636;2022-10-16T05:38:56;100020.03;;;19.28;100.00
59435;BME280;45241;49.768;8.636;2022-10-16T05:41:21;100030.31;;;19.26;100.00
59435;BME280;45241;49.768;8.636;2022-10-16T05:43:48;100026.72;;;18.99;100.00
59435;BME280;45241;49.768;8.636;2022-10-16T05:46:14;100039.59;;;18.87;100.00
59435;BME280;45241;49.768;8.636;2022-10-16T05:48:39;100040.44;;;19.31;100.00
59435;BME280;45241;49.768;8.636;2022-10-16T05:51:06;100041.59;;;19.35;100.00
59435;BME280;45241;49.768;8.636;2022-10-16T05:53:35;100034.81;;;19.37;100.00
59435;BME280;45241;49.768;8.636;2022-10-16T05:56:00;100038.06;;;19.34;100.00
59435;BME280;45241;49.768;8.636;2022-10-16T05:58:28;100044.44;;;19.23;100.00
59435;BME280;45241;49.768;8.636;2022-10-16T06:00:57;100055.06;;;18.69;100.00
59435;BME280;45241;49.768;8.636;2022-10-16T06:03:23;100062.59;;;19.01;100.00
59435;BME280;45241;49.768;8.636;2022-10-16T06:05:48;100078.25;;;18.94;100.00
59435;BME280;45241;49.768;8.636;2022-10-16T06:08:13;100068.94;;;19.28;100.00
59435;BME280;45241;49.768;8.636;2022-10-16T06:10:39;100074.50;;;19.38;100.00
59435;BME280;45241;49.768;8.636;2022-10-16T06:13:04;100075.06;;;18.80;100.00
59435;BME280;45241;49.768;8.636;2022-10-16T06:15:29;100077.81;;;19.02;100.00
59435;BME280;45241;49.768;8.636;2022-10-16T06:17:54;100087.56;;;18.98;100.00
59435;BME280;45241;49.768;8.636;2022-10-16T06:20:19;100085.69;;;19.20;100.00
59435;BME280;45241;49.768;8.636;2022-10-16T06:22:44;100092.69;;;19.16;100.00
59435;BME280;45241;49.768;8.636;2022-10-16T06:25:10;100083.56;;;19.22;100.00
59435;BME280;45241;49.768;8.636;2022-10-16T06:27:35;100087.09;;;19.23;100.00
59435;BME280;45241;49.768;8.636;2022-10-16T06:30:00;100088.63;;;19.19;100.00
59435;BME280;45241;49.768;8.636;2022-10-16T06:32:25;100086.47;;;19.37;100.00
59435;BME280;45241;49.768;8.636;2022-10-16T06:34:52;100091.19;;;19.25;100.00
59435;BME280;45241;49.768;8.636;2022-10-16T06:37:17;100092.56;;;19.28;100.00
59435;BME280;45241;49.768;8.636;2022-10-16T06:39:42;100086.00;;;18.85;100.00
59435;BME280;45241;49.768;8.636;2022-10-16T06:42:07;100079.72;;;19.01;100.00
59435;BME280;45241;49.768;8.636;2022-10-16T06:44:32;100071.59;;;19.23;100.00
59435;BME280;45241;49.768;8.636;2022-10-16T06:46:57;100073.75;;;19.21;100.00
59435;BME280;45241;49.768;8.636;2022-10-16T06:49:23;100079.19;;;19.43;100.00
59435;BME280;45241;49.768;8.636;2022-10-16T06:51:48;100087.63;;;19.03;100.00
59435;BME280;45241;49.768;8.636;2022-10-16T06:54:14;100097.75;;;19.29;100.00
59435;BME280;45241;49.768;8.636;2022-10-16T06:56:40;100098.84;;;19.28;100.00
59435;BME280;45241;49.768;8.636;2022-10-16T06:59:05;100111.63;;;19.50;100.00
59435;BME280;45241;49.768;8.636;2022-10-16T07:01:30;100108.38;;;19.09;100.00
59435;BME280;45241;49.768;8.636;2022-10-16T07:03:56;100097.22;;;19.49;100.00
59435;BME280;45241;49.768;8.636;2022-10-16T07:06:22;100108.41;;;19.53;100.00
59435;BME280;45241;49.768;8.636;2022-10-16T07:08:48;100103.72;;;19.48;100.00
59435;BME280;45241;49.768;8.636;2022-10-16T07:11:14;100111.69;;;19.55;100.00
59435;BME280;45241;49.768;8.636;2022-10-16T07:13:41;100107.22;;;19.87;100.00
59435;BME280;45241;49.768;8.636;2022-10-16T07:16:16;100112.94;;;19.69;100.00
59435;BME280;45241;49.768;8.636;2022-10-16T07:18:42;100125.16;;;19.88;100.00
59435;BME280;45241;49.768;8.636;2022-10-16T07:21:10;100124.03;;;19.84;100.00
59435;BME280;45241;49.768;8.636;2022-10-16T07:23:36;100125.47;;;19.92;100.00
59435;BME280;45241;49.768;8.636;2022-10-16T07:26:02;100135.97;;;19.61;100.00
59435;BME280;45241;49.768;8.636;2022-10-16T07:28:27;100132.69;;;19.81;100.00
59435;BME280;45241;49.768;8.636;2022-10-16T07:30:52;100138.88;;;19.55;100.00
59435;BME280;45241;49.768;8.636;2022-10-16T07:33:18;100144.75;;;19.68;100.00
59435;BME280;45241;49.768;8.636;2022-10-16T07:35:53;100147.28;;;19.97;100.00
59435;BME280;45241;49.768;8.636;2022-10-16T07:38:19;100155.78;;;20.01;100.00
59435;BME280;45241;49.768;8.636;2022-10-16T07:40:44;100149.59;;;20.10;100.00
59435;BME280;45241;49.768;8.636;2022-10-16T07:43:10;100152.13;;;20.17;100.00
59435;BME280;45241;49.768;8.636;2022-10-16T07:45:35;100159.22;;;20.18;100.00
59435;BME280;45241;49.768;8.636;2022-10-16T07:48:00;100163.72;;;20.07;100.00
59435;BME280;45241;49.768;8.636;2022-10-16T07:50:25;100165.09;;;20.32;100.00
59435;BME280;45241;49.768;8.636;2022-10-16T07:52:50;100172.44;;;20.31;100.00
59435;BME280;45241;49.768;8.636;2022-10-16T07:55:16;100169.00;;;20.14;100.00
59435;BME280;45241;49.768;8.636;2022-10-16T07:57:41;100170.47;;;20.27;100.00
59435;BME280;45241;49.768;8.636;2022-10-16T08:00:07;100170.53;;;20.32;100.00
59435;BME280;45241;49.768;8.636;2022-10-16T08:02:32;100178.69;;;20.32;100.00
59435;BME280;45241;49.768;8.636;2022-10-16T08:04:57;100179.34;;;20.17;100.00
59435;BME280;45241;49.768;8.636;2022-10-16T08:07:23;100193.22;;;20.42;100.00
59435;BME280;45241;49.768;8.636;2022-10-16T08:09:51;100186.06;;;20.09;100.00
59435;BME280;45241;49.768;8.636;2022-10-16T08:12:17;100183.97;;;20.16;100.00
59435;BME280;45241;49.768;8.636;2022-10-16T08:14:42;100192.59;;;20.35;100.00
59435;BME280;45241;49.768;8.636;2022-10-16T08:17:07;100184.13;;;20.32;100.00
59435;BME280;45241;49.768;8.636;2022-10-16T08:19:33;100195.59;;;20.34;100.00
59435;BME280;45241;49.768;8.636;2022-10-16T08:21:59;100197.84;;;20.15;100.00
59435;BME280;45241;49.768;8.636;2022-10-16T08:24:24;100210.91;;;20.40;100.00
59435;BME280;45241;49.768;8.636;2022-10-16T08:26:49;100210.88;;;20.13;100.00
59435;BME280;45241;49.768;8.636;2022-10-16T08:29:15;100216.63;;;19.56;100.00
59435;BME280;45241;49.768;8.636;2022-10-16T08:31:40;100226.38;;;19.90;100.00
59435;BME280;45241;49.768;8.636;2022-10-16T08:34:05;100235.06;;;19.87;100.00
59435;BME280;45241;49.768;8.636;2022-10-16T08:36:30;100246.81;;;19.54;100.00
59435;BME280;45241;49.768;8.636;2022-10-16T08:38:55;100252.66;;;19.63;100.00
59435;BME280;45241;49.768;8.636;2022-10-16T08:49:03;100292.78;;;19.73;100.00
59435;BME280;45241;49.768;8.636;2022-10-16T08:51:33;100294.81;;;19.65;100.00
59435;BME280;45241;49.768;8.636;2022-10-16T08:54:04;100290.59;;;19.91;100.00
59435;BME280;45241;49.768;8.636;2022-10-16T08:56:30;100284.34;;;19.91;100.00
59435;BME280;45241;49.768;8.636;2022-10-16T08:58:57;100281.22;;;19.82;100.00
59435;BME280;45241;49.768;8.636;2022-10-16T09:01:22;100286.50;;;19.89;100.00
59435;BME280;45241;49.768;8.636;2022-10-16T09:14:02;100279.66;;;20.08;100.00
59435;BME280;45241;49.768;8.636;2022-10-16T09:16:35;100290.16;;;19.27;100.00
59435;BME280;45241;49.768;8.636;2022-10-16T09:19:09;100303.03;;;20.04;100.00
59435;BME280;45241;49.768;8.636;2022-10-16T09:21:37;100310.25;;;20.15;100.00
59435;BME280;45241;49.768;8.636;2022-10-16T09:24:12;100298.09;;;20.23;100.00
59435;BME280;45241;49.768;8.636;2022-10-16T09:26:38;100299.16;;;20.22;100.00
59435;BME280;45241;49.768;8.636;2022-10-16T09:29:03;100300.88;;;20.28;100.00
59435;BME280;45241;49.768;8.636;2022-10-16T09:31:28;100308.19;;;20.49;100.00
59435;BME280;45241;49.768;8.636;2022-10-16T09:34:00;100299.84;;;20.56;100.00
59435;BME280;45241;49.768;8.636;2022-10-16T09:36:31;100300.00;;;20.66;100.00
59435;BME280;45241;49.768;8.636;2022-10-16T09:39:04;100304.91;;;20.47;100.00
59435;BME280;45241;49.768;8.636;2022-10-16T09:41:30;100310.84;;;20.88;100.00
59435;BME280;45241;49.768;8.636;2022-10-16T09:43:56;100302.06;;;20.59;100.00
59435;BME280;45241;49.768;8.636;2022-10-16T09:46:29;100316.28;;;20.88;100.00
59435;BME280;45241;49.768;8.636;2022-10-16T09:48:59;100311.56;;;21.05;100.00
59435;BME280;45241;49.768;8.636;2022-10-16T09:51:28;100309.53;;;20.91;100.00
59435;BME280;45241;49.768;8.636;2022-10-16T09:53:58;100308.59;;;21.12;100.00
59435;BME280;45241;49.768;8.636;2022-10-16T09:56:27;100316.97;;;21.64;100.00
59435;BME280;45241;49.768;8.636;2022-10-16T09:58:55;100319.13;;;21.57;100.00
59435;BME280;45241;49.768;8.636;2022-10-16T10:01:22;100317.94;;;21.16;100.00
59435;BME280;45241;49.768;8.636;2022-10-16T10:03:49;100320.88;;;21.41;100.00
59435;BME280;45241;49.768;8.636;2022-10-16T10:06:25;100316.13;;;21.59;100.00
59435;BME280;45241;49.768;8.636;2022-10-16T10:08:55;100314.84;;;21.39;100.00
59435;BME280;45241;49.768;8.636;2022-10-16T10:14:31;100325.25;;;21.80;100.00
59435;BME280;45241;49.768;8.636;2022-10-16T10:22:40;100332.63;;;22.26;100.00
59435;BME280;45241;49.768;8.636;2022-10-16T10:25:22;100332.63;;;22.21;100.00
59435;BME280;45241;49.768;8.636;2022-10-16T10:32:40;100329.47;;;21.55;100.00
59435;BME280;45241;49.768;8.636;2022-10-16T10:40:02;100331.31;;;21.82;96.72
59435;BME280;45241;49.768;8.636;2022-10-16T10:42:44;100332.81;;;22.62;96.97
59435;BME280;45241;49.768;8.636;2022-10-16T10:45:16;100339.41;;;22.81;97.02
59435;BME280;45241;49.768;8.636;2022-10-16T10:48:05;100339.19;;;23.08;94.06
59435;BME280;45241;49.768;8.636;2022-10-16T10:50:43;100332.03;;;22.72;95.03
59435;BME280;45241;49.768;8.636;2022-10-16T10:53:15;100347.28;;;22.68;94.82
59435;BME280;45241;49.768;8.636;2022-10-16T10:58:31;100329.09;;;22.31;97.82
59435;BME280;45241;49.768;8.636;2022-10-16T11:01:15;100335.84;;;22.81;95.90
59435;BME280;45241;49.768;8.636;2022-10-16T11:04:01;100326.91;;;23.11;92.25
59435;BME280;45241;49.768;8.636;2022-10-16T11:06:33;100332.09;;;23.07;92.63
59435;BME280;45241;49.768;8.636;2022-10-16T11:09:12;100322.88;;;22.36;96.03
59435;BME280;45241;49.768;8.636;2022-10-16T11:11:44;100316.06;;;22.38;92.82
59435;BME280;45241;49.768;8.636;2022-10-16T11:14:18;100311.56;;;23.05;91.06
59435;BME280;45241;49.768;8.636;2022-10-16T11:16:58;100315.13;;;23.82;90.78
59435;BME280;45241;49.768;8.636;2022-10-16T11:21:56;100330.44;;;23.01;92.06
59435;BME280;45241;49.768;8.636;2022-10-16T11:24:36;100324.47;;;23.20;87.64
59435;BME280;45241;49.768;8.636;2022-10-16T11:27:08;100317.84;;;23.87;87.93
59435;BME280;45241;49.768;8.636;2022-10-16T11:29:43;100325.81;;;23.83;87.53
59435;BME280;45241;49.768;8.636;2022-10-16T11:32:15;100334.59;;;23.70;87.16
59435;BME280;45241;49.768;8.636;2022-10-16T11:34:51;100329.03;;;24.21;86.81
59435;BME280;45241;49.768;8.636;2022-10-16T11:37:18;100332.34;;;24.18;87.47
59435;BME280;45241;49.768;8.636;2022-10-16T11:39:45;100323.28;;;24.12;85.26
59435;BME280;45241;49.768;8.636;2022-10-16T11:42:13;100325.53;;;23.95;86.43
59435;BME280;45241;49.768;8.636;2022-10-16T11:44:57;100328.84;;;23.76;91.47
59435;BME280;45241;49.768;8.636;2022-10-16T11:47:34;100328.47;;;24.24;87.35
59435;BME280;45241;49.768;8.636;2022-10-16T11:50:13;100323.09;;;23.78;87.23
59435;BME280;45241;49.768;8.636;2022-10-16T11:52:44;100325.28;;;23.61;88.13
59435;BME280;45241;49.768;8.636;2022-10-16T11:55:32;100319.56;;;23.57;89.08
59435;BME280;45241;49.768;8.636;2022-10-16T11:58:20;100303.13;;;23.77;88.15
59435;BME280;45241;49.768;8.636;2022-10-16T12:00:51;100315.97;;;23.62;89.27
59435;BME280;45241;49.768;8.636;2022-10-16T12:03:20;100318.72;;;23.46;89.43
59435;BME280;45241;49.768;8.636;2022-10-16T12:05:52;100307.53;;;23.33;91.15
59435;BME280;45241;49.768;8.636;2022-10-16T12:08:20;100305.03;;;23.72;92.78
59435;BME280;45241;49.768;8.636;2022-10-16T12:10:46;100308.84;;;23.00;93.83
59435;BME280;45241;49.768;8.636;2022-10-16T12:13:27;100300.31;;;23.88;91.58
59435;BME280;45241;49.768;8.636;2022-10-16T12:16:03;100314.84;;;22.92;90.86
59435;BME280;45241;49.768;8.636;2022-10-16T12:18:28;100306.13;;;23.76;90.49
59435;BME280;45241;49.768;8.636;2022-10-16T12:20:55;100313.25;;;23.46;92.31
59435;BME280;45241;49.768;8.636;2022-10-16T12:23:23;100308.31;;;23.13;94.06
59435;BME280;45241;49.768;8.636;2022-10-16T12:25:57;100312.72;;;23.55;90.53
59435;BME280;45241;49.768;8.636;2022-10-16T12:28:26;100306.31;;;24.20;88.02
59435;BME280;45241;49.768;8.636;2022-10-16T12:30:53;100309.38;;;23.88;92.07
59435;BME280;45241;49.768;8.636;2022-10-16T12:33:23;100309.63;;;23.87;88.04
59435;BME280;45241;49.768;8.636;2022-10-16T12:35:49;100316.00;;;23.52;91.25
59435;BME280;45241;49.768;8.636;2022-10-16T12:40:39;100312.59;;;24.21;91.22
59435;BME280;45241;49.768;8.636;2022-10-16T12:43:22;100316.56;;;23.54;89.96
59435;BME280;45241;49.768;8.636;2022-10-16T12:45:58;100304.94;;;24.18;86.57
59435;BME280;45241;49.768;8.636;2022-10-16T12:48:23;100314.66;;;24.54;87.49
59435;BME280;45241;49.768;8.636;2022-10-16T12:50:48;100315.31;;;24.26;87.00
59435;BME280;45241;49.768;8.636;2022-10-16T12:53:18;100311.56;;;23.86;90.76
59435;BME280;45241;49.768;8.636;2022-10-16T12:55:47;100312.81;;;24.34;88.11
59435;BME280;45241;49.768;8.636;2022-10-16T13:00:56;100314.22;;;24.22;90.01
59435;BME280;45241;49.768;8.636;2022-10-16T13:03:36;100309.41;;;23.78;88.93
59435;BME280;45241;49.768;8.636;2022-10-16T13:14:15;100319.97;;;24.25;87.42
59435;BME280;45241;49.768;8.636;2022-10-16T13:21:58;100318.13;;;24.05;89.66
59435;BME280;45241;49.768;8.636;2022-10-16T13:24:51;100308.53;;;24.08;88.50
59435;BME280;45241;49.768;8.636;2022-10-16T13:29:53;100315.41;;;23.75;92.12
59435;BME280;45241;49.768;8.636;2022-10-16T13:32:25;100307.72;;;23.87;90.47
59435;BME280;45241;49.768;8.636;2022-10-16T13:34:51;100318.69;;;23.97;91.45
59435;BME280;45241;49.768;8.636;2022-10-16T13:37:18;100317.63;;;23.22;94.12
59435;BME280;45241;49.768;8.636;2022-10-16T13:39:44;100334.88;;;23.53;93.03
59435;BME280;45241;49.768;8.636;2022-10-16T13:42:14;100335.97;;;23.22;96.89
59435;BME280;45241;49.768;8.636;2022-10-16T13:44:43;100335.31;;;22.84;100.00
59435;BME280;45241;49.768;8.636;2022-10-16T13:47:17;100339.50;;;23.17;96.34
59435;BME280;45241;49.768;8.636;2022-10-16T13:49:42;100338.69;;;23.47;91.02
59435;BME280;45241;49.768;8.636;2022-10-16T13:52:15;100343.34;;;23.77;93.25
59435;BME280;45241;49.768;8.636;2022-10-16T13:54:41;100344.19;;;23.67;93.10
59435;BME280;45241;49.768;8.636;2022-10-16T13:57:07;100348.81;;;23.77;94.39